createdAt,value
2022-10-20T00:00:30.012Z,101187.78
2022-10-20T00:02:58.312Z,101187.69
2022-10-20T00:05:24.846Z,101145.59
2022-10-20T00:07:51.500Z,101185.28
2022-10-20T00:10:18.001Z,101183.69
2022-10-20T00:12:44.497Z,101164.94
2022-10-20T00:15:11.201Z,101158.44
2022-10-20T00:17:37.721Z,101152.91
2022-10-20T00:20:07.048Z,101135.44
2022-10-20T00:22:33.817Z,101129.22
2022-10-20T00:25:00.505Z,101129.44
2022-10-20T00:27:27.008Z,101127.63
2022-10-20T00:29:53.617Z,101128.72
2022-10-20T00:32:20.185Z,101123.22
2022-10-20T00:34:46.696Z,101118.59
2022-10-20T00:37:14.681Z,101115.25
2022-10-20T00:39:41.210Z,101115.16
2022-10-20T00:42:07.776Z,101113.13
2022-10-20T00:44:52.911Z,101110.69
2022-10-20T00:47:24.996Z,101068.53
2022-10-20T00:49:52.123Z,101111.88
2022-10-20T00:52:21.989Z,101117.22
2022-10-20T00:54:49.677Z,101117.22
2022-10-20T00:57:16.431Z,101104.06
2022-10-20T00:59:43.572Z,101098.72
2022-10-20T01:02:10.455Z,101102.19
2022-10-20T01:04:37.769Z,101101.34
2022-10-20T01:07:04.778Z,101091.66
2022-10-20T01:09:33.558Z,101082.09
2022-10-20T01:12:12.057Z,101089.25
2022-10-20T01:14:44.481Z,101060.03
2022-10-20T01:17:22.286Z,101081.16
2022-10-20T01:20:22.316Z,101074.22
2022-10-20T01:23:23.019Z,101050.66
2022-10-20T01:26:08.936Z,101059.38
2022-10-20T01:28:42.274Z,101060.31
2022-10-20T01:31:16.584Z,101056.75
2022-10-20T01:33:53.723Z,101048.94
2022-10-20T01:36:27.193Z,101048.25
2022-10-20T01:39:00.414Z,101055.19
2022-10-20T01:41:31.644Z,101057.69
2022-10-20T01:44:01.165Z,101044.22
2022-10-20T01:46:27.793Z,101046.88
2022-10-20T01:48:55.198Z,101047.72
2022-10-20T01:51:21.725Z,101040.66
2022-10-20T01:53:48.274Z,101051.88
2022-10-20T01:56:20.013Z,101043.66
2022-10-20T01:59:01.319Z,101038.63
2022-10-20T02:01:43.763Z,101022.97
2022-10-20T02:04:11.324Z,101020.00
2022-10-20T02:06:43.303Z,101023.38
2022-10-20T02:09:16.281Z,100996.16
2022-10-20T02:11:49.080Z,100992.69
2022-10-20T02:14:18.265Z,101015.38
2022-10-20T02:16:49.306Z,101003.78
2022-10-20T02:19:19.381Z,101006.31
2022-10-20T02:21:47.361Z,100991.28
2022-10-20T02:24:16.004Z,100991.59
2022-10-20T02:26:44.064Z,100989.56
2022-10-20T02:29:14.139Z,100982.63
2022-10-20T02:31:42.089Z,100975.81
2022-10-20T02:34:11.828Z,100969.13
2022-10-20T02:36:40.305Z,100971.63
2022-10-20T02:39:07.908Z,100965.97
2022-10-20T02:41:34.562Z,100978.09
2022-10-20T02:44:01.090Z,100977.25
2022-10-20T02:46:27.682Z,100978.09
2022-10-20T02:48:54.314Z,100927.00
2022-10-20T02:51:22.170Z,100979.72
2022-10-20T02:53:48.656Z,100969.69
2022-10-20T02:56:15.288Z,100973.31
2022-10-20T02:58:41.809Z,100971.34
2022-10-20T03:01:08.335Z,100980.69
2022-10-20T03:03:34.844Z,100969.19
2022-10-20T03:06:07.471Z,100969.19
2022-10-20T03:08:35.656Z,100968.47
2022-10-20T03:11:02.214Z,100963.94
2022-10-20T03:15:56.431Z,100946.00
2022-10-20T03:18:23.058Z,100935.25
2022-10-20T03:20:50.992Z,100943.75
2022-10-20T03:23:19.997Z,100927.72
2022-10-20T03:25:48.473Z,100937.22
2022-10-20T03:28:15.131Z,100940.78
2022-10-20T03:30:41.648Z,100942.00
2022-10-20T03:33:08.184Z,100930.75
2022-10-20T03:35:34.691Z,100931.00
2022-10-20T03:38:01.213Z,100927.97
2022-10-20T03:40:27.782Z,100923.19
2022-10-20T03:42:55.637Z,100932.91
2022-10-20T03:45:22.214Z,100925.47
2022-10-20T03:47:49.122Z,100918.97
2022-10-20T03:50:15.704Z,100908.53
2022-10-20T03:52:42.259Z,100909.50
2022-10-20T03:55:09.482Z,100926.03
2022-10-20T03:57:36.227Z,100925.31
2022-10-20T04:00:05.282Z,100922.56
2022-10-20T04:02:42.842Z,100921.50
2022-10-20T04:05:12.216Z,100916.69
2022-10-20T04:07:38.715Z,100921.47
2022-10-20T04:10:06.114Z,100926.38
2022-10-20T04:12:32.737Z,100914.41
2022-10-20T04:14:59.522Z,100911.66
2022-10-20T04:17:27.501Z,100915.09
2022-10-20T04:19:54.307Z,100920.38
2022-10-20T04:22:20.985Z,100901.78
2022-10-20T04:24:47.564Z,100902.97
2022-10-20T04:27:14.094Z,100911.03
2022-10-20T04:29:40.737Z,100906.91
2022-10-20T04:32:07.237Z,100881.25
2022-10-20T04:34:35.393Z,100877.75
2022-10-20T04:37:02.221Z,100871.41
2022-10-20T04:39:28.872Z,100855.94
2022-10-20T04:41:55.384Z,100871.88
2022-10-20T04:44:22.060Z,100860.84
2022-10-20T04:46:48.554Z,100857.00
2022-10-20T04:49:15.238Z,100852.09
2022-10-20T04:51:43.086Z,100829.09
2022-10-20T04:54:09.695Z,100851.38
2022-10-20T04:56:36.242Z,100844.91
2022-10-20T04:59:04.111Z,100854.34
2022-10-20T05:01:31.867Z,100844.56
2022-10-20T05:03:58.616Z,100842.31
2022-10-20T05:06:26.351Z,100830.03
2022-10-20T05:08:56.808Z,100812.19
2022-10-20T05:11:25.462Z,100825.59
2022-10-20T05:13:52.252Z,100811.66
2022-10-20T05:16:19.102Z,100793.81
2022-10-20T05:18:46.965Z,100804.19
2022-10-20T05:21:15.403Z,100800.91
2022-10-20T05:23:43.161Z,100822.22
2022-10-20T05:26:13.712Z,100811.78
2022-10-20T05:28:42.529Z,100795.97
2022-10-20T05:31:09.162Z,100793.19
2022-10-20T05:33:35.912Z,100800.41
2022-10-20T05:36:07.342Z,100793.94
2022-10-20T05:38:33.907Z,100804.97
2022-10-20T05:41:05.638Z,100799.09
2022-10-20T05:43:33.447Z,100804.16
2022-10-20T05:46:00.019Z,100807.03
2022-10-20T05:48:26.596Z,100801.63
2022-10-20T05:50:53.095Z,100796.75
2022-10-20T05:53:19.760Z,100801.75
2022-10-20T05:55:46.586Z,100810.50
2022-10-20T05:58:14.083Z,100807.03
2022-10-20T06:00:41.974Z,100804.16
2022-10-20T06:03:08.565Z,100769.25
2022-10-20T06:05:35.072Z,100774.09
2022-10-20T06:08:01.653Z,100791.72
2022-10-20T06:10:28.179Z,100792.75
2022-10-20T06:12:54.740Z,100797.97
2022-10-20T06:15:22.001Z,100800.94
2022-10-20T06:17:49.945Z,100793.38
2022-10-20T06:20:16.497Z,100810.97
2022-10-20T06:22:43.367Z,100811.16
2022-10-20T06:25:09.889Z,100824.53
2022-10-20T06:27:36.505Z,100823.50
2022-10-20T06:30:03.261Z,100824.78
2022-10-20T06:32:29.876Z,100841.47
2022-10-20T06:34:57.722Z,100847.84
2022-10-20T06:37:24.294Z,100848.34
2022-10-20T06:39:51.023Z,100854.53
2022-10-20T06:42:17.528Z,100816.09
2022-10-20T06:44:46.722Z,100841.91
2022-10-20T06:47:13.400Z,100835.66
2022-10-20T06:49:39.880Z,100819.00
2022-10-20T06:52:07.908Z,100818.56
2022-10-20T06:54:34.450Z,100820.22
2022-10-20T06:57:01.242Z,100812.72
2022-10-20T06:59:27.713Z,100821.13
2022-10-20T07:01:54.330Z,100821.50
2022-10-20T07:04:20.842Z,100822.78
2022-10-20T07:06:47.430Z,100812.06
2022-10-20T07:09:16.664Z,100829.63
2022-10-20T07:11:44.023Z,100838.81
2022-10-20T07:14:11.956Z,100839.41
2022-10-20T07:16:38.876Z,100829.63
2022-10-20T07:19:05.360Z,100853.91
2022-10-20T07:21:36.599Z,100828.53
2022-10-20T07:24:05.511Z,100865.19
2022-10-20T07:26:36.146Z,100858.97
2022-10-20T07:29:03.523Z,100833.72
2022-10-20T07:31:31.956Z,100846.81
2022-10-20T07:34:12.984Z,100832.25
2022-10-20T07:36:41.437Z,100821.38
2022-10-20T07:39:07.934Z,100811.47
2022-10-20T07:41:37.483Z,100808.28
2022-10-20T07:44:04.238Z,100797.59
2022-10-20T07:46:31.172Z,100787.44
2022-10-20T07:49:11.394Z,100783.00
2022-10-20T07:51:44.601Z,100793.88
2022-10-20T07:54:11.312Z,100783.56
2022-10-20T07:56:40.814Z,100814.78
2022-10-20T07:59:09.689Z,100811.28
2022-10-20T08:01:36.995Z,100817.69
2022-10-20T08:04:04.036Z,100811.72
2022-10-20T08:06:30.717Z,100798.22
2022-10-20T08:08:57.437Z,100796.09
2022-10-20T08:11:24.039Z,100778.84
2022-10-20T08:13:52.007Z,100800.56
2022-10-20T08:16:31.942Z,100773.13
2022-10-20T08:19:00.111Z,100789.13
2022-10-20T08:21:26.730Z,100792.88
2022-10-20T08:23:53.330Z,100789.78
2022-10-20T08:26:22.008Z,100780.03
2022-10-20T08:28:50.083Z,100770.25
2022-10-20T08:31:18.148Z,100755.91
2022-10-20T08:33:46.822Z,100760.34
2022-10-20T08:36:16.750Z,100772.44
2022-10-20T08:38:43.331Z,100765.31
2022-10-20T08:41:17.661Z,100795.09
2022-10-20T08:43:46.861Z,100793.81
2022-10-20T08:46:15.396Z,100786.72
2022-10-20T08:48:45.374Z,100799.00
2022-10-20T08:51:17.900Z,100782.00
2022-10-20T08:53:44.892Z,100786.19
2022-10-20T08:56:13.146Z,100741.09
2022-10-20T08:58:42.653Z,100781.59
2022-10-20T09:01:18.105Z,100788.41
2022-10-20T09:03:52.762Z,100792.59
2022-10-20T09:06:19.329Z,100786.72
2022-10-20T09:08:47.070Z,100784.63
2022-10-20T09:11:17.157Z,100784.25
2022-10-20T09:13:44.228Z,100781.16
2022-10-20T09:16:23.229Z,100789.63
2022-10-20T09:19:02.929Z,100790.09
2022-10-20T09:21:30.738Z,100793.88
2022-10-20T09:24:01.964Z,100797.91
2022-10-20T09:26:54.226Z,100788.13
2022-10-20T09:29:22.662Z,100794.84
2022-10-20T09:31:50.522Z,100789.69
2022-10-20T09:34:24.444Z,100779.88
2022-10-20T09:36:53.580Z,100766.81
2022-10-20T09:39:22.160Z,100769.00
2022-10-20T09:41:50.236Z,100778.94
2022-10-20T09:44:20.600Z,100763.19
2022-10-20T09:46:50.216Z,100755.56
2022-10-20T09:49:25.616Z,100753.50
2022-10-20T09:54:25.998Z,100781.72
2022-10-20T09:56:53.299Z,100799.28
2022-10-20T09:59:24.992Z,100784.50
2022-10-20T10:01:57.241Z,100796.69
2022-10-20T10:04:34.647Z,100785.97
2022-10-20T10:07:01.522Z,100768.13
2022-10-20T10:09:30.876Z,100788.59
2022-10-20T10:11:59.824Z,100787.38
2022-10-20T10:14:26.744Z,100791.00
2022-10-20T10:16:53.343Z,100796.03
2022-10-20T10:19:25.063Z,100801.41
2022-10-20T10:21:54.504Z,100799.72
2022-10-20T10:24:34.755Z,100801.63
2022-10-20T10:27:01.310Z,100787.44
2022-10-20T10:29:31.143Z,100784.63
2022-10-20T10:32:00.743Z,100760.00
2022-10-20T10:34:37.578Z,100752.31
2022-10-20T10:37:06.135Z,100771.06
2022-10-20T10:39:35.709Z,100761.53
2022-10-20T10:42:18.000Z,100732.13
2022-10-20T10:44:54.959Z,100760.28
2022-10-20T10:47:37.906Z,100736.41
2022-10-20T10:50:25.800Z,100712.06
2022-10-20T10:53:05.813Z,100738.25
2022-10-20T10:55:54.134Z,100737.66
2022-10-20T10:58:32.808Z,100736.41
2022-10-20T11:01:09.723Z,100735.00
2022-10-20T11:03:59.945Z,100737.97
2022-10-20T11:06:36.859Z,100729.69
2022-10-20T11:09:18.526Z,100738.56
2022-10-20T11:11:57.455Z,100742.50
2022-10-20T11:14:34.868Z,100746.16
2022-10-20T11:17:17.048Z,100759.81
2022-10-20T11:20:00.600Z,100798.63
2022-10-20T11:22:37.807Z,100775.34
2022-10-20T11:25:16.866Z,100799.66
2022-10-20T11:27:43.676Z,100797.69
2022-10-20T11:30:15.509Z,100792.69
2022-10-20T11:32:47.438Z,100797.09
2022-10-20T11:35:22.722Z,100787.84
2022-10-20T11:37:54.785Z,100783.69
2022-10-20T11:40:26.920Z,100774.75
2022-10-20T11:43:00.617Z,100777.41
2022-10-20T11:45:39.030Z,100766.72
2022-10-20T11:48:14.601Z,100749.50
2022-10-20T11:50:47.624Z,100740.31
2022-10-20T11:53:45.319Z,100739.69
2022-10-20T11:56:28.142Z,100749.19
2022-10-20T11:59:28.241Z,100737.06
2022-10-20T12:02:10.654Z,100747.53
2022-10-20T12:04:58.989Z,100740.31
2022-10-20T12:07:40.154Z,100736.81
2022-10-20T12:10:27.360Z,100728.72
2022-10-20T12:13:01.488Z,100724.78
2022-10-20T12:15:30.422Z,100710.16
2022-10-20T12:18:01.840Z,100718.56
2022-10-20T12:20:48.988Z,100704.16
2022-10-20T12:23:56.576Z,100694.25
2022-10-20T12:27:00.206Z,100707.41
2022-10-20T12:29:55.967Z,100702.28
2022-10-20T12:32:38.819Z,100677.19
2022-10-20T12:35:44.501Z,100688.66
2022-10-20T12:38:17.851Z,100663.72
2022-10-20T12:40:49.194Z,100664.78
2022-10-20T12:43:31.857Z,100675.22
2022-10-20T12:46:04.537Z,100686.28
2022-10-20T12:48:35.167Z,100686.06
2022-10-20T12:51:06.347Z,100679.91
2022-10-20T12:53:33.468Z,100665.00
2022-10-20T12:56:05.360Z,100655.19
2022-10-20T12:58:34.132Z,100669.75
2022-10-20T13:01:06.204Z,100673.94
2022-10-20T13:03:43.654Z,100670.00
2022-10-20T13:06:44.369Z,100667.88
2022-10-20T13:09:22.181Z,100657.31
2022-10-20T13:12:00.864Z,100656.94
2022-10-20T13:14:35.668Z,100654.00
2022-10-20T13:17:12.676Z,100656.84
2022-10-20T13:19:45.636Z,100656.56
2022-10-20T13:22:35.628Z,100645.78
2022-10-20T13:25:05.025Z,100651.53
2022-10-20T13:27:31.710Z,100657.69
2022-10-20T13:29:58.372Z,100652.16
2022-10-20T13:32:38.028Z,100653.28
2022-10-20T13:35:20.596Z,100636.47
2022-10-20T13:37:56.573Z,100651.34
2022-10-20T13:40:35.731Z,100646.59
2022-10-20T13:43:21.256Z,100648.91
2022-10-20T13:46:02.745Z,100640.22
2022-10-20T13:48:42.981Z,100640.69
2022-10-20T13:51:19.771Z,100642.19
2022-10-20T13:53:51.482Z,100631.59
2022-10-20T13:56:25.692Z,100648.66
2022-10-20T13:59:05.312Z,100640.41
2022-10-20T14:01:34.054Z,100645.09
2022-10-20T14:04:00.606Z,100631.41
2022-10-20T14:06:37.077Z,100642.59
2022-10-20T14:09:14.419Z,100638.88
2022-10-20T14:11:41.962Z,100635.22
2022-10-20T14:14:13.241Z,100631.88
2022-10-20T14:16:40.086Z,100653.97
2022-10-20T14:19:11.790Z,100652.59
2022-10-20T14:21:45.100Z,100645.63
2022-10-20T14:24:16.316Z,100638.06
2022-10-20T14:26:43.698Z,100607.22
2022-10-20T14:29:14.230Z,100605.91
2022-10-20T14:31:41.259Z,100631.63
2022-10-20T14:34:18.686Z,100618.94
2022-10-20T14:36:47.596Z,100597.88
2022-10-20T14:39:22.052Z,100609.69
2022-10-20T14:41:48.809Z,100602.97
2022-10-20T14:44:31.158Z,100607.66
2022-10-20T14:47:01.311Z,100605.34
2022-10-20T14:49:30.726Z,100604.88
2022-10-20T14:52:00.547Z,100600.53
2022-10-20T14:57:40.425Z,100610.72
2022-10-20T15:00:31.202Z,100615.31
2022-10-20T15:02:58.877Z,100596.19
2022-10-20T15:05:33.830Z,100601.38
2022-10-20T15:08:10.658Z,100598.91
2022-10-20T15:10:38.747Z,100595.22
2022-10-20T15:13:05.505Z,100598.44
2022-10-20T15:15:37.980Z,100589.38
2022-10-20T15:18:15.094Z,100585.19
2022-10-20T15:20:43.617Z,100578.47
2022-10-20T15:23:14.047Z,100573.13
2022-10-20T15:25:49.363Z,100598.09
2022-10-20T15:28:31.292Z,100596.13
2022-10-20T15:30:58.064Z,100601.13
2022-10-20T15:33:24.662Z,100592.97
2022-10-20T15:35:51.333Z,100601.44
2022-10-20T15:38:19.948Z,100591.81
2022-10-20T15:40:47.082Z,100579.28
2022-10-20T15:43:16.626Z,100590.88
2022-10-20T15:45:45.861Z,100597.53
2022-10-20T15:48:12.531Z,100591.72
2022-10-20T15:50:39.597Z,100585.84
2022-10-20T15:53:06.481Z,100568.75
2022-10-20T15:55:37.961Z,100574.13
2022-10-20T15:58:04.546Z,100565.31
2022-10-20T16:00:31.265Z,100576.84
2022-10-20T16:02:57.883Z,100564.19
2022-10-20T16:05:25.353Z,100569.16
2022-10-20T16:07:53.269Z,100574.81
2022-10-20T16:10:20.919Z,100573.75
2022-10-20T16:12:49.004Z,100563.44
2022-10-20T16:15:15.825Z,100560.94
2022-10-20T16:17:42.643Z,100552.81
2022-10-20T16:20:10.338Z,100551.78
2022-10-20T16:22:37.453Z,100550.41
2022-10-20T16:25:05.216Z,100549.06
2022-10-20T16:27:33.234Z,100533.59
2022-10-20T16:30:01.373Z,100555.28
2022-10-20T16:32:32.804Z,100561.56
2022-10-20T16:35:02.250Z,100538.22
2022-10-20T16:37:30.404Z,100566.63
2022-10-20T16:39:57.041Z,100563.72
2022-10-20T16:42:23.601Z,100569.34
2022-10-20T16:44:50.135Z,100560.34
2022-10-20T16:47:17.990Z,100545.50
2022-10-20T16:49:44.570Z,100558.00
2022-10-20T16:52:11.042Z,100563.91
2022-10-20T16:54:37.669Z,100557.16
2022-10-20T16:57:04.483Z,100558.59
2022-10-20T16:59:31.032Z,100558.06
2022-10-20T17:01:57.544Z,100556.38
2022-10-20T17:04:25.566Z,100552.59
2022-10-20T17:06:52.078Z,100546.38
2022-10-20T17:09:18.890Z,100545.50
2022-10-20T17:11:45.434Z,100544.03
2022-10-20T17:14:12.306Z,100551.84
2022-10-20T17:16:38.914Z,100511.41
2022-10-20T17:19:06.129Z,100532.16
2022-10-20T17:21:34.693Z,100536.84
2022-10-20T17:24:02.153Z,100537.69
2022-10-20T17:26:30.534Z,100539.88
2022-10-20T17:28:59.166Z,100548.44
2022-10-20T17:31:25.878Z,100562.97
2022-10-20T17:33:52.647Z,100557.44
2022-10-20T17:36:19.193Z,100548.88
2022-10-20T17:38:47.251Z,100532.91
2022-10-20T17:41:15.758Z,100554.88
2022-10-20T17:43:42.410Z,100536.59
2022-10-20T17:46:11.898Z,100552.50
2022-10-20T17:48:39.162Z,100545.63
2022-10-20T17:51:07.627Z,100552.66
2022-10-20T17:53:35.842Z,100549.72
2022-10-20T17:56:05.713Z,100546.25
2022-10-20T17:58:33.074Z,100532.66
2022-10-20T18:01:07.867Z,100537.97
2022-10-20T18:03:34.695Z,100561.91
2022-10-20T18:06:06.616Z,100560.78
2022-10-20T18:08:33.445Z,100565.16
2022-10-20T18:11:00.122Z,100555.84
2022-10-20T18:13:28.112Z,100547.56
2022-10-20T18:15:54.664Z,100564.03
2022-10-20T18:18:21.207Z,100549.38
2022-10-20T18:20:54.066Z,100523.44
2022-10-20T18:23:20.652Z,100556.91
2022-10-20T18:25:47.178Z,100553.25
2022-10-20T18:28:14.028Z,100554.78
2022-10-20T18:30:41.991Z,100557.91
2022-10-20T18:33:08.667Z,100533.03
2022-10-20T18:35:36.425Z,100539.09
2022-10-20T18:38:03.083Z,100532.53
2022-10-20T18:40:29.668Z,100496.47
2022-10-20T18:42:56.369Z,100538.50
2022-10-20T18:45:25.227Z,100536.84
2022-10-20T18:47:54.416Z,100535.31
2022-10-20T18:50:20.964Z,100538.41
2022-10-20T18:52:47.579Z,100522.81
2022-10-20T18:55:14.283Z,100532.22
2022-10-20T18:57:40.995Z,100540.69
2022-10-20T19:00:09.140Z,100536.97
2022-10-20T19:02:35.832Z,100521.28
2022-10-20T19:05:04.375Z,100508.06
2022-10-20T19:07:32.301Z,100518.38
2022-10-20T19:09:58.847Z,100471.44
2022-10-20T19:12:25.523Z,100513.31
2022-10-20T19:14:52.033Z,100501.88
2022-10-20T19:17:18.656Z,100479.41
2022-10-20T19:19:45.206Z,100514.44
2022-10-20T19:22:13.177Z,100509.16
2022-10-20T19:24:39.693Z,100471.44
2022-10-20T19:27:25.608Z,100466.22
2022-10-20T19:29:52.913Z,100491.34
2022-10-20T19:32:19.454Z,100483.09
2022-10-20T19:34:46.112Z,100473.19
2022-10-20T19:37:13.999Z,100472.81
2022-10-20T19:39:42.142Z,100468.78
2022-10-20T19:42:10.225Z,100455.00
2022-10-20T19:44:37.673Z,100462.59
2022-10-20T19:47:04.286Z,100470.94
2022-10-20T19:49:30.955Z,100444.88
2022-10-20T19:51:57.702Z,100459.31
2022-10-20T19:54:25.919Z,100445.94
2022-10-20T19:56:52.528Z,100432.72
2022-10-20T19:59:19.405Z,100446.56
2022-10-20T20:01:45.964Z,100418.44
2022-10-20T20:04:12.589Z,100432.84
2022-10-20T20:06:39.324Z,100445.47
2022-10-20T20:09:08.038Z,100436.53
2022-10-20T20:11:37.398Z,100429.13
2022-10-20T20:14:06.617Z,100412.84
2022-10-20T20:16:34.751Z,100408.69
2022-10-20T20:19:01.590Z,100398.56
2022-10-20T20:21:28.603Z,100409.59
2022-10-20T20:24:00.705Z,100389.22
2022-10-20T20:26:29.349Z,100400.69
2022-10-20T20:28:58.489Z,100383.06
2022-10-20T20:31:26.657Z,100386.91
2022-10-20T20:33:53.975Z,100379.63
2022-10-20T20:36:20.767Z,100390.09
2022-10-20T20:38:47.317Z,100396.72
2022-10-20T20:41:15.502Z,100406.72
2022-10-20T20:43:42.383Z,100392.59
2022-10-20T20:46:12.722Z,100385.03
2022-10-20T20:48:39.283Z,100393.00
2022-10-20T20:51:06.376Z,100397.34
2022-10-20T20:56:02.260Z,100376.63
2022-10-20T20:58:30.062Z,100380.59
2022-10-20T21:01:04.051Z,100385.56
2022-10-20T21:03:33.053Z,100380.09
2022-10-20T21:06:03.040Z,100369.00
2022-10-20T21:08:31.666Z,100379.47
2022-10-20T21:11:04.329Z,100373.84
2022-10-20T21:13:31.375Z,100373.34
2022-10-20T21:16:07.136Z,100359.56
2022-10-20T21:18:35.092Z,100368.69
2022-10-20T21:21:07.147Z,100377.31
2022-10-20T21:23:33.821Z,100376.66
2022-10-20T21:26:00.375Z,100386.31
2022-10-20T21:28:26.966Z,100383.78
2022-10-20T21:30:55.205Z,100389.78
2022-10-20T21:33:24.354Z,100384.63
2022-10-20T21:35:52.445Z,100399.63
2022-10-20T21:38:19.068Z,100386.50
2022-10-20T21:40:45.759Z,100393.09
2022-10-20T21:43:12.534Z,100403.72
2022-10-20T21:45:39.024Z,100391.47
2022-10-20T21:48:05.919Z,100396.59
2022-10-20T21:50:35.236Z,100390.28
2022-10-20T21:53:03.172Z,100396.75
2022-10-20T21:55:29.689Z,100407.56
2022-10-20T21:57:56.274Z,100416.50
2022-10-20T22:00:23.955Z,100423.00
2022-10-20T22:02:50.736Z,100424.91
2022-10-20T22:05:17.278Z,100422.84
2022-10-20T22:07:43.870Z,100423.84
2022-10-20T22:10:11.721Z,100424.69
2022-10-20T22:12:38.318Z,100430.34
2022-10-20T22:15:05.661Z,100426.00
2022-10-20T22:17:32.237Z,100406.75
2022-10-20T22:19:58.845Z,100413.25
2022-10-20T22:22:25.480Z,100425.34
2022-10-20T22:24:51.973Z,100421.03
2022-10-20T22:27:31.483Z,100418.72
2022-10-20T22:30:07.749Z,100418.59
2022-10-20T22:32:34.443Z,100425.19
2022-10-20T22:35:01.045Z,100424.91
2022-10-20T22:37:27.541Z,100430.69
2022-10-20T22:39:54.435Z,100422.38
2022-10-20T22:42:24.794Z,100402.91
2022-10-20T22:44:51.629Z,100411.75
2022-10-20T22:47:18.131Z,100411.59
2022-10-20T22:49:44.695Z,100404.81
2022-10-20T22:52:11.167Z,100389.97
2022-10-20T22:54:37.818Z,100408.09
2022-10-20T22:57:04.373Z,100403.78
2022-10-20T22:59:32.561Z,100406.31
2022-10-20T23:01:59.105Z,100398.00
2022-10-20T23:04:25.994Z,100408.63
2022-10-20T23:06:52.512Z,100376.44
2022-10-20T23:09:19.233Z,100400.81
2022-10-20T23:11:46.174Z,100397.03
2022-10-20T23:14:12.758Z,100368.47
2022-10-20T23:16:40.650Z,100380.25
2022-10-20T23:19:07.222Z,100387.88
2022-10-20T23:21:33.964Z,100381.91
2022-10-20T23:24:00.559Z,100380.56
2022-10-20T23:26:27.271Z,100365.78
2022-10-20T23:28:53.824Z,100360.97
2022-10-20T23:31:21.777Z,100358.00
2022-10-20T23:33:53.887Z,100347.38
2022-10-20T23:36:21.036Z,100353.50
2022-10-20T23:38:47.777Z,100348.00
2022-10-20T23:41:14.685Z,100349.50
2022-10-20T23:43:41.203Z,100333.72
2022-10-20T23:46:07.955Z,100330.41
2022-10-20T23:48:34.698Z,100321.94
2022-10-20T23:51:02.941Z,100339.56
2022-10-20T23:53:29.676Z,100331.59
2022-10-20T23:55:56.358Z,100317.13
2022-10-20T23:58:23.274Z,100311.34
